sensor_id;sensor_type;location;lat;lon;timestamp;temperature;humidity
10314;DHT22;5202;49.138;10.090;2023-12-20T00:00:48;4.90;99.90
10314;DHT22;5202;49.138;10.090;2023-12-20T00:03:17;4.90;99.90
10314;DHT22;5202;49.138;10.090;2023-12-20T00:05:45;4.90;99.90
10314;DHT22;5202;49.138;10.090;2023-12-20T00:08:14;4.90;99.90
10314;DHT22;5202;49.138;10.090;2023-12-20T00:10:43;4.90;99.90
10314;DHT22;5202;49.138;10.090;2023-12-20T00:13:13;4.90;99.90
10314;DHT22;5202;49.138;10.090;2023-12-20T00:15:42;4.90;99.90
10314;DHT22;5202;49.138;10.090;2023-12-20T00:18:10;4.90;99.90
10314;DHT22;5202;49.138;10.090;2023-12-20T00:20:38;4.90;99.90
10314;DHT22;5202;49.138;10.090;2023-12-20T00:23:07;5.00;99.90
10314;DHT22;5202;49.138;10.090;2023-12-20T00:25:35;4.90;99.90
10314;DHT22;5202;49.138;10.090;2023-12-20T00:28:04;4.90;99.90
10314;DHT22;5202;49.138;10.090;2023-12-20T00:30:34;4.90;99.90
10314;DHT22;5202;49.138;10.090;2023-12-20T00:33:03;4.90;99.90
10314;DHT22;5202;49.138;10.090;2023-12-20T00:35:32;4.90;99.90
10314;DHT22;5202;49.138;10.090;2023-12-20T00:38:00;4.90;99.90
10314;DHT22;5202;49.138;10.090;2023-12-20T00:40:29;4.90;99.90
10314;DHT22;5202;49.138;10.090;2023-12-20T00:42:57;4.90;99.90
10314;DHT22;5202;49.138;10.090;2023-12-20T00:45:25;4.90;99.90
10314;DHT22;5202;49.138;10.090;2023-12-20T00:47:55;4.90;99.90
10314;DHT22;5202;49.138;10.090;2023-12-20T00:50:24;4.90;99.90
10314;DHT22;5202;49.138;10.090;2023-12-20T00:52:55;4.80;99.90
10314;DHT22;5202;49.138;10.090;2023-12-20T00:55:24;4.80;99.90
10314;DHT22;5202;49.138;10.090;2023-12-20T00:57:52;4.70;99.90
10314;DHT22;5202;49.138;10.090;2023-12-20T01:00:21;4.70;99.90
10314;DHT22;5202;49.138;10.090;2023-12-20T01:03:16;4.60;99.90
10314;DHT22;5202;49.138;10.090;2023-12-20T01:05:45;4.50;99.90
10314;DHT22;5202;49.138;10.090;2023-12-20T01:08:13;4.50;99.90
10314;DHT22;5202;49.138;10.090;2023-12-20T01:10:49;4.50;99.90
10314;DHT22;5202;49.138;10.090;2023-12-20T01:13:17;4.50;99.90
10314;DHT22;5202;49.138;10.090;2023-12-20T01:15:46;4.50;99.90
10314;DHT22;5202;49.138;10.090;2023-12-20T01:18:15;4.50;99.90
10314;DHT22;5202;49.138;10.090;2023-12-20T01:20:44;4.40;99.90
10314;DHT22;5202;49.138;10.090;2023-12-20T01:23:13;4.30;99.90
10314;DHT22;5202;49.138;10.090;2023-12-20T01:25:41;4.30;99.90
10314;DHT22;5202;49.138;10.090;2023-12-20T01:28:10;4.30;99.90
10314;DHT22;5202;49.138;10.090;2023-12-20T01:30:39;4.20;99.90
10314;DHT22;5202;49.138;10.090;2023-12-20T01:33:07;4.20;99.90
10314;DHT22;5202;49.138;10.090;2023-12-20T01:35:37;4.20;99.90
10314;DHT22;5202;49.138;10.090;2023-12-20T01:38:05;4.20;99.90
10314;DHT22;5202;49.138;10.090;2023-12-20T01:40:34;4.20;99.90
10314;DHT22;5202;49.138;10.090;2023-12-20T01:43:07;4.20;99.90
10314;DHT22;5202;49.138;10.090;2023-12-20T01:45:36;4.20;99.90
10314;DHT22;5202;49.138;10.090;2023-12-20T01:48:06;4.20;99.90
10314;DHT22;5202;49.138;10.090;2023-12-20T01:50:37;4.20;99.90
10314;DHT22;5202;49.138;10.090;2023-12-20T01:53:07;4.20;99.90
10314;DHT22;5202;49.138;10.090;2023-12-20T01:55:39;4.20;99.90
10314;DHT22;5202;49.138;10.090;2023-12-20T01:58:09;4.20;99.90
10314;DHT22;5202;49.138;10.090;2023-12-20T02:00:38;4.10;99.90
10314;DHT22;5202;49.138;10.090;2023-12-20T02:03:11;4.10;99.90
10314;DHT22;5202;49.138;10.090;2023-12-20T02:05:41;4.10;99.90
10314;DHT22;5202;49.138;10.090;2023-12-20T02:08:09;4.10;99.90
10314;DHT22;5202;49.138;10.090;2023-12-20T02:10:38;4.10;99.90
10314;DHT22;5202;49.138;10.090;2023-12-20T02:13:07;4.10;99.90
10314;DHT22;5202;49.138;10.090;2023-12-20T02:15:36;4.10;99.90
10314;DHT22;5202;49.138;10.090;2023-12-20T02:18:06;4.10;99.90
10314;DHT22;5202;49.138;10.090;2023-12-20T02:20:34;4.20;99.90
10314;DHT22;5202;49.138;10.090;2023-12-20T02:23:04;4.20;99.90
10314;DHT22;5202;49.138;10.090;2023-12-20T02:25:32;4.20;99.90
10314;DHT22;5202;49.138;10.090;2023-12-20T02:28:00;4.20;99.90
10314;DHT22;5202;49.138;10.090;2023-12-20T02:30:29;4.20;99.90
10314;DHT22;5202;49.138;10.090;2023-12-20T02:32:59;4.20;99.90
10314;DHT22;5202;49.138;10.090;2023-12-20T02:35:28;4.20;99.90
10314;DHT22;5202;49.138;10.090;2023-12-20T02:37:56;4.20;99.90
10314;DHT22;5202;49.138;10.090;2023-12-20T02:40:26;4.20;99.90
10314;DHT22;5202;49.138;10.090;2023-12-20T02:42:54;4.20;99.90
10314;DHT22;5202;49.138;10.090;2023-12-20T02:45:23;4.30;99.90
10314;DHT22;5202;49.138;10.090;2023-12-20T02:47:52;4.20;99.90
10314;DHT22;5202;49.138;10.090;2023-12-20T02:50:20;4.20;99.90
10314;DHT22;5202;49.138;10.090;2023-12-20T02:52:48;4.20;99.90
10314;DHT22;5202;49.138;10.090;2023-12-20T02:55:17;4.20;99.90
10314;DHT22;5202;49.138;10.090;2023-12-20T02:57:46;4.20;99.90
10314;DHT22;5202;49.138;10.090;2023-12-20T03:00:15;4.20;99.90
10314;DHT22;5202;49.138;10.090;2023-12-20T03:02:44;4.20;99.90
10314;DHT22;5202;49.138;10.090;2023-12-20T03:05:13;4.20;99.90
10314;DHT22;5202;49.138;10.090;2023-12-20T03:07:50;4.20;99.90
10314;DHT22;5202;49.138;10.090;2023-12-20T03:10:18;4.20;99.90
10314;DHT22;5202;49.138;10.090;2023-12-20T03:12:54;4.20;99.90
10314;DHT22;5202;49.138;10.090;2023-12-20T03:15:23;4.20;99.90
10314;DHT22;5202;49.138;10.090;2023-12-20T03:17:51;4.20;99.90
10314;DHT22;5202;49.138;10.090;2023-12-20T03:20:19;4.20;99.90
10314;DHT22;5202;49.138;10.090;2023-12-20T03:22:48;4.20;99.90
10314;DHT22;5202;49.138;10.090;2023-12-20T03:25:16;4.20;99.90
10314;DHT22;5202;49.138;10.090;2023-12-20T03:27:45;4.10;99.90
10314;DHT22;5202;49.138;10.090;2023-12-20T03:30:15;4.10;99.90
10314;DHT22;5202;49.138;10.090;2023-12-20T03:32:43;4.10;99.90
10314;DHT22;5202;49.138;10.090;2023-12-20T03:35:12;4.10;99.90
10314;DHT22;5202;49.138;10.090;2023-12-20T03:37:40;4.10;99.90
10314;DHT22;5202;49.138;10.090;2023-12-20T03:40:10;4.00;99.90
10314;DHT22;5202;49.138;10.090;2023-12-20T03:42:38;4.10;99.90
10314;DHT22;5202;49.138;10.090;2023-12-20T03:45:08;4.00;99.90
10314;DHT22;5202;49.138;10.090;2023-12-20T03:47:38;4.00;99.90
10314;DHT22;5202;49.138;10.090;2023-12-20T03:50:07;3.90;99.90
10314;DHT22;5202;49.138;10.090;2023-12-20T03:52:36;3.90;99.90
10314;DHT22;5202;49.138;10.090;2023-12-20T03:55:05;3.90;99.90
10314;DHT22;5202;49.138;10.090;2023-12-20T03:57:34;3.90;99.90
10314;DHT22;5202;49.138;10.090;2023-12-20T04:00:03;3.80;99.90
10314;DHT22;5202;49.138;10.090;2023-12-20T04:02:39;3.80;99.90
10314;DHT22;5202;49.138;10.090;2023-12-20T04:05:09;3.80;99.90
10314;DHT22;5202;49.138;10.090;2023-12-20T04:07:38;3.80;99.90
10314;DHT22;5202;49.138;10.090;2023-12-20T04:10:07;3.80;99.90
10314;DHT22;5202;49.138;10.090;2023-12-20T04:12:36;3.80;99.90
10314;DHT22;5202;49.138;10.090;2023-12-20T04:15:05;3.70;99.90
10314;DHT22;5202;49.138;10.090;2023-12-20T04:17:36;3.70;99.90
10314;DHT22;5202;49.138;10.090;2023-12-20T04:20:07;3.70;99.90
10314;DHT22;5202;49.138;10.090;2023-12-20T04:22:36;3.70;99.90
10314;DHT22;5202;49.138;10.090;2023-12-20T04:25:05;3.70;99.90
10314;DHT22;5202;49.138;10.090;2023-12-20T04:27:35;3.70;99.90
10314;DHT22;5202;49.138;10.090;2023-12-20T04:30:04;3.70;99.90
10314;DHT22;5202;49.138;10.090;2023-12-20T04:32:34;3.70;99.90
10314;DHT22;5202;49.138;10.090;2023-12-20T04:35:03;3.70;99.90
10314;DHT22;5202;49.138;10.090;2023-12-20T04:37:34;3.70;99.90
10314;DHT22;5202;49.138;10.090;2023-12-20T04:40:02;3.70;99.90
10314;DHT22;5202;49.138;10.090;2023-12-20T04:42:32;3.70;99.90
10314;DHT22;5202;49.138;10.090;2023-12-20T04:45:00;3.60;99.90
10314;DHT22;5202;49.138;10.090;2023-12-20T04:47:29;3.60;99.90
10314;DHT22;5202;49.138;10.090;2023-12-20T04:49:57;3.60;99.90
10314;DHT22;5202;49.138;10.090;2023-12-20T04:52:26;3.60;99.90
10314;DHT22;5202;49.138;10.090;2023-12-20T04:54:56;3.70;99.90
10314;DHT22;5202;49.138;10.090;2023-12-20T04:57:24;3.70;99.90
10314;DHT22;5202;49.138;10.090;2023-12-20T04:59:53;3.60;99.90
10314;DHT22;5202;49.138;10.090;2023-12-20T05:02:21;3.70;99.90
10314;DHT22;5202;49.138;10.090;2023-12-20T05:04:50;3.60;99.90
10314;DHT22;5202;49.138;10.090;2023-12-20T05:07:31;3.60;99.90
10314;DHT22;5202;49.138;10.090;2023-12-20T05:10:03;3.60;99.90
10314;DHT22;5202;49.138;10.090;2023-12-20T05:12:32;3.60;99.90
10314;DHT22;5202;49.138;10.090;2023-12-20T05:15:01;3.60;99.90
10314;DHT22;5202;49.138;10.090;2023-12-20T05:17:29;3.60;99.90
10314;DHT22;5202;49.138;10.090;2023-12-20T05:19:58;3.60;99.90
10314;DHT22;5202;49.138;10.090;2023-12-20T05:22:27;3.60;99.90
10314;DHT22;5202;49.138;10.090;2023-12-20T05:24:55;3.60;99.90
10314;DHT22;5202;49.138;10.090;2023-12-20T05:27:25;3.60;99.90
10314;DHT22;5202;49.138;10.090;2023-12-20T05:29:53;3.60;99.90
10314;DHT22;5202;49.138;10.090;2023-12-20T05:32:24;3.70;99.90
10314;DHT22;5202;49.138;10.090;2023-12-20T05:34:53;3.70;99.90
10314;DHT22;5202;49.138;10.090;2023-12-20T05:37:22;3.70;99.90
10314;DHT22;5202;49.138;10.090;2023-12-20T05:39:50;3.70;99.90
10314;DHT22;5202;49.138;10.090;2023-12-20T05:42:19;3.70;99.90
10314;DHT22;5202;49.138;10.090;2023-12-20T05:44:48;3.70;99.90
10314;DHT22;5202;49.138;10.090;2023-12-20T05:47:21;3.70;99.90
10314;DHT22;5202;49.138;10.090;2023-12-20T05:49:49;3.70;99.90
10314;DHT22;5202;49.138;10.090;2023-12-20T05:52:18;3.70;99.90
10314;DHT22;5202;49.138;10.090;2023-12-20T05:54:46;3.70;99.90
10314;DHT22;5202;49.138;10.090;2023-12-20T05:57:14;3.70;99.90
10314;DHT22;5202;49.138;10.090;2023-12-20T05:59:43;3.80;99.90
10314;DHT22;5202;49.138;10.090;2023-12-20T06:02:13;3.70;99.90
10314;DHT22;5202;49.138;10.090;2023-12-20T06:04:42;3.80;99.90
10314;DHT22;5202;49.138;10.090;2023-12-20T06:07:11;3.80;99.90
10314;DHT22;5202;49.138;10.090;2023-12-20T06:09:40;3.70;99.90
10314;DHT22;5202;49.138;10.090;2023-12-20T06:12:08;3.80;99.90
10314;DHT22;5202;49.138;10.090;2023-12-20T06:14:37;3.80;99.90
10314;DHT22;5202;49.138;10.090;2023-12-20T06:17:05;3.80;99.90
10314;DHT22;5202;49.138;10.090;2023-12-20T06:19:35;3.80;99.90
10314;DHT22;5202;49.138;10.090;2023-12-20T06:22:29;3.80;99.90
10314;DHT22;5202;49.138;10.090;2023-12-20T06:25:26;3.80;99.90
10314;DHT22;5202;49.138;10.090;2023-12-20T06:27:55;3.80;99.90
10314;DHT22;5202;49.138;10.090;2023-12-20T06:30:24;3.90;99.90
10314;DHT22;5202;49.138;10.090;2023-12-20T06:32:54;3.80;99.90
10314;DHT22;5202;49.138;10.090;2023-12-20T06:35:26;3.90;99.90
10314;DHT22;5202;49.138;10.090;2023-12-20T06:37:56;3.90;99.90
10314;DHT22;5202;49.138;10.090;2023-12-20T06:40:25;3.90;99.90
10314;DHT22;5202;49.138;10.090;2023-12-20T06:42:56;3.90;99.90
10314;DHT22;5202;49.138;10.090;2023-12-20T06:45:38;3.90;99.90
10314;DHT22;5202;49.138;10.090;2023-12-20T06:48:11;3.90;99.90
10314;DHT22;5202;49.138;10.090;2023-12-20T06:50:43;3.90;99.90
10314;DHT22;5202;49.138;10.090;2023-12-20T06:53:13;3.90;99.90
10314;DHT22;5202;49.138;10.090;2023-12-20T06:55:42;3.90;99.90
10314;DHT22;5202;49.138;10.090;2023-12-20T06:58:11;3.90;99.90
10314;DHT22;5202;49.138;10.090;2023-12-20T07:00:40;4.00;99.90
10314;DHT22;5202;49.138;10.090;2023-12-20T07:03:12;4.00;99.90
10314;DHT22;5202;49.138;10.090;2023-12-20T07:05:41;4.00;99.90
10314;DHT22;5202;49.138;10.090;2023-12-20T07:08:20;4.00;99.90
10314;DHT22;5202;49.138;10.090;2023-12-20T07:10:48;4.00;99.90
10314;DHT22;5202;49.138;10.090;2023-12-20T07:13:17;4.00;99.90
10314;DHT22;5202;49.138;10.090;2023-12-20T07:15:46;4.00;99.90
10314;DHT22;5202;49.138;10.090;2023-12-20T07:18:14;4.00;99.90
10314;DHT22;5202;49.138;10.090;2023-12-20T07:20:44;4.00;99.90
10314;DHT22;5202;49.138;10.090;2023-12-20T07:23:13;4.00;99.90
10314;DHT22;5202;49.138;10.090;2023-12-20T07:25:41;4.00;99.90
10314;DHT22;5202;49.138;10.090;2023-12-20T07:28:10;4.00;99.90
10314;DHT22;5202;49.138;10.090;2023-12-20T07:30:41;4.10;99.90
10314;DHT22;5202;49.138;10.090;2023-12-20T07:33:09;4.10;99.90
10314;DHT22;5202;49.138;10.090;2023-12-20T07:35:39;4.10;99.90
10314;DHT22;5202;49.138;10.090;2023-12-20T07:38:09;4.10;99.90
10314;DHT22;5202;49.138;10.090;2023-12-20T07:40:39;4.10;99.90
10314;DHT22;5202;49.138;10.090;2023-12-20T07:43:07;4.10;99.90
10314;DHT22;5202;49.138;10.090;2023-12-20T07:45:35;4.10;99.90
10314;DHT22;5202;49.138;10.090;2023-12-20T07:48:06;4.10;99.90
10314;DHT22;5202;49.138;10.090;2023-12-20T07:50:36;4.10;99.90
10314;DHT22;5202;49.138;10.090;2023-12-20T07:53:04;4.10;99.90
10314;DHT22;5202;49.138;10.090;2023-12-20T07:55:34;4.10;99.90
10314;DHT22;5202;49.138;10.090;2023-12-20T07:58:03;4.10;99.90
10314;DHT22;5202;49.138;10.090;2023-12-20T08:00:32;4.10;99.90
10314;DHT22;5202;49.138;10.090;2023-12-20T08:03:00;4.00;99.90
10314;DHT22;5202;49.138;10.090;2023-12-20T08:05:30;4.00;99.90
10314;DHT22;5202;49.138;10.090;2023-12-20T08:07:59;4.00;99.90
10314;DHT22;5202;49.138;10.090;2023-12-20T08:10:27;3.90;99.90
10314;DHT22;5202;49.138;10.090;2023-12-20T08:12:58;3.90;99.90
10314;DHT22;5202;49.138;10.090;2023-12-20T08:15:26;3.90;99.90
10314;DHT22;5202;49.138;10.090;2023-12-20T08:17:55;3.90;99.90
10314;DHT22;5202;49.138;10.090;2023-12-20T08:20:23;3.90;99.90
10314;DHT22;5202;49.138;10.090;2023-12-20T08:23:06;3.90;99.90
10314;DHT22;5202;49.138;10.090;2023-12-20T08:25:34;3.90;99.90
10314;DHT22;5202;49.138;10.090;2023-12-20T08:28:04;3.80;99.90
10314;DHT22;5202;49.138;10.090;2023-12-20T08:30:34;3.80;99.90
10314;DHT22;5202;49.138;10.090;2023-12-20T08:33:03;3.70;99.90
10314;DHT22;5202;49.138;10.090;2023-12-20T08:35:32;3.70;99.90
10314;DHT22;5202;49.138;10.090;2023-12-20T08:38:00;3.80;99.90
10314;DHT22;5202;49.138;10.090;2023-12-20T08:40:29;3.70;99.90
10314;DHT22;5202;49.138;10.090;2023-12-20T08:42:57;3.70;99.90
10314;DHT22;5202;49.138;10.090;2023-12-20T08:45:27;3.80;99.90
10314;DHT22;5202;49.138;10.090;2023-12-20T08:47:57;3.80;99.90
10314;DHT22;5202;49.138;10.090;2023-12-20T08:50:29;3.80;99.90
10314;DHT22;5202;49.138;10.090;2023-12-20T08:52:58;3.80;99.90
10314;DHT22;5202;49.138;10.090;2023-12-20T08:55:26;3.80;99.90
10314;DHT22;5202;49.138;10.090;2023-12-20T08:57:56;3.80;99.90
10314;DHT22;5202;49.138;10.090;2023-12-20T09:00:25;3.90;99.90
10314;DHT22;5202;49.138;10.090;2023-12-20T09:02:56;3.90;99.90
10314;DHT22;5202;49.138;10.090;2023-12-20T09:05:36;4.00;99.90
10314;DHT22;5202;49.138;10.090;2023-12-20T09:08:07;4.00;99.90
10314;DHT22;5202;49.138;10.090;2023-12-20T09:10:37;4.10;99.90
10314;DHT22;5202;49.138;10.090;2023-12-20T09:13:06;4.20;99.90
10314;DHT22;5202;49.138;10.090;2023-12-20T09:15:37;4.30;99.90
10314;DHT22;5202;49.138;10.090;2023-12-20T09:18:05;4.40;99.90
10314;DHT22;5202;49.138;10.090;2023-12-20T09:20:35;4.40;99.90
10314;DHT22;5202;49.138;10.090;2023-12-20T09:23:07;4.40;99.90
10314;DHT22;5202;49.138;10.090;2023-12-20T09:25:35;4.40;99.90
10314;DHT22;5202;49.138;10.090;2023-12-20T09:28:05;4.40;99.90
10314;DHT22;5202;49.138;10.090;2023-12-20T09:30:34;4.40;99.90
10314;DHT22;5202;49.138;10.090;2023-12-20T09:33:09;4.40;99.90
10314;DHT22;5202;49.138;10.090;2023-12-20T09:35:38;4.40;99.90
10314;DHT22;5202;49.138;10.090;2023-12-20T09:38:07;4.30;99.90
10314;DHT22;5202;49.138;10.090;2023-12-20T09:40:40;4.30;99.90
10314;DHT22;5202;49.138;10.090;2023-12-20T09:43:14;4.20;99.90
10314;DHT22;5202;49.138;10.090;2023-12-20T09:45:46;4.20;99.90
10314;DHT22;5202;49.138;10.090;2023-12-20T09:48:18;4.20;99.90
10314;DHT22;5202;49.138;10.090;2023-12-20T09:50:47;4.20;99.90
10314;DHT22;5202;49.138;10.090;2023-12-20T09:53:21;4.40;99.90
10314;DHT22;5202;49.138;10.090;2023-12-20T09:55:58;4.40;99.90
10314;DHT22;5202;49.138;10.090;2023-12-20T09:58:28;4.50;99.90
10314;DHT22;5202;49.138;10.090;2023-12-20T10:00:57;4.60;99.90
10314;DHT22;5202;49.138;10.090;2023-12-20T10:03:27;4.70;99.90
10314;DHT22;5202;49.138;10.090;2023-12-20T10:05:57;4.80;99.90
10314;DHT22;5202;49.138;10.090;2023-12-20T10:08:26;4.90;99.90
10314;DHT22;5202;49.138;10.090;2023-12-20T10:10:55;5.00;99.90
10314;DHT22;5202;49.138;10.090;2023-12-20T10:13:30;4.90;99.90
10314;DHT22;5202;49.138;10.090;2023-12-20T10:15:59;4.90;99.90
10314;DHT22;5202;49.138;10.090;2023-12-20T10:18:30;4.80;99.90
10314;DHT22;5202;49.138;10.090;2023-12-20T10:21:06;4.90;99.90
10314;DHT22;5202;49.138;10.090;2023-12-20T10:23:38;4.90;99.90
10314;DHT22;5202;49.138;10.090;2023-12-20T10:26:08;4.80;99.90
10314;DHT22;5202;49.138;10.090;2023-12-20T10:28:36;4.80;99.90
10314;DHT22;5202;49.138;10.090;2023-12-20T10:31:05;4.70;99.90
10314;DHT22;5202;49.138;10.090;2023-12-20T10:33:36;4.70;99.90
10314;DHT22;5202;49.138;10.090;2023-12-20T10:36:05;4.70;99.90
10314;DHT22;5202;49.138;10.090;2023-12-20T10:38:36;4.70;99.90
10314;DHT22;5202;49.138;10.090;2023-12-20T10:41:08;4.70;99.90
10314;DHT22;5202;49.138;10.090;2023-12-20T10:43:39;4.70;99.90
10314;DHT22;5202;49.138;10.090;2023-12-20T10:46:08;4.70;99.90
10314;DHT22;5202;49.138;10.090;2023-12-20T10:48:39;4.70;99.90
10314;DHT22;5202;49.138;10.090;2023-12-20T10:51:09;4.60;99.90
10314;DHT22;5202;49.138;10.090;2023-12-20T10:53:39;4.70;99.90
10314;DHT22;5202;49.138;10.090;2023-12-20T10:56:11;4.70;99.90
10314;DHT22;5202;49.138;10.090;2023-12-20T10:58:45;4.70;99.90
10314;DHT22;5202;49.138;10.090;2023-12-20T11:01:16;4.70;99.90
10314;DHT22;5202;49.138;10.090;2023-12-20T11:03:58;4.70;99.90
10314;DHT22;5202;49.138;10.090;2023-12-20T11:06:32;4.70;99.90
10314;DHT22;5202;49.138;10.090;2023-12-20T11:09:19;4.70;99.90
10314;DHT22;5202;49.138;10.090;2023-12-20T11:12:01;4.70;99.90
10314;DHT22;5202;49.138;10.090;2023-12-20T11:14:39;4.70;99.90
10314;DHT22;5202;49.138;10.090;2023-12-20T11:17:11;4.70;99.90
10314;DHT22;5202;49.138;10.090;2023-12-20T11:20:04;4.70;99.90
10314;DHT22;5202;49.138;10.090;2023-12-20T11:22:36;4.70;99.90
10314;DHT22;5202;49.138;10.090;2023-12-20T11:25:09;4.60;99.90
10314;DHT22;5202;49.138;10.090;2023-12-20T11:27:41;4.60;99.90
10314;DHT22;5202;49.138;10.090;2023-12-20T11:30:14;4.60;99.90
10314;DHT22;5202;49.138;10.090;2023-12-20T11:32:46;4.50;99.90
10314;DHT22;5202;49.138;10.090;2023-12-20T11:35:19;4.60;99.90
10314;DHT22;5202;49.138;10.090;2023-12-20T11:37:48;4.50;99.90
10314;DHT22;5202;49.138;10.090;2023-12-20T11:40:18;4.50;99.90
10314;DHT22;5202;49.138;10.090;2023-12-20T11:42:50;4.60;99.90
10314;DHT22;5202;49.138;10.090;2023-12-20T11:45:23;4.50;99.90
10314;DHT22;5202;49.138;10.090;2023-12-20T11:47:58;4.40;99.90
10314;DHT22;5202;49.138;10.090;2023-12-20T11:50:28;4.40;99.90
10314;DHT22;5202;49.138;10.090;2023-12-20T11:52:58;4.30;99.90
10314;DHT22;5202;49.138;10.090;2023-12-20T11:55:26;4.30;99.90
10314;DHT22;5202;49.138;10.090;2023-12-20T11:57:56;4.30;99.90
10314;DHT22;5202;49.138;10.090;2023-12-20T12:00:25;4.30;99.90
10314;DHT22;5202;49.138;10.090;2023-12-20T12:02:56;4.30;99.90
10314;DHT22;5202;49.138;10.090;2023-12-20T12:05:25;4.30;99.90
10314;DHT22;5202;49.138;10.090;2023-12-20T12:07:55;4.30;99.90
10314;DHT22;5202;49.138;10.090;2023-12-20T12:10:24;4.30;99.90
10314;DHT22;5202;49.138;10.090;2023-12-20T12:12:53;4.30;99.90
10314;DHT22;5202;49.138;10.090;2023-12-20T12:15:22;4.30;99.90
10314;DHT22;5202;49.138;10.090;2023-12-20T12:17:53;4.30;99.90
10314;DHT22;5202;49.138;10.090;2023-12-20T12:20:23;4.30;99.90
10314;DHT22;5202;49.138;10.090;2023-12-20T12:23:00;4.30;99.90
10314;DHT22;5202;49.138;10.090;2023-12-20T12:25:30;4.20;99.90
10314;DHT22;5202;49.138;10.090;2023-12-20T12:28:00;4.20;99.90
10314;DHT22;5202;49.138;10.090;2023-12-20T12:30:29;4.30;99.90
10314;DHT22;5202;49.138;10.090;2023-12-20T12:33:05;4.30;99.90
10314;DHT22;5202;49.138;10.090;2023-12-20T12:35:34;4.30;99.90
10314;DHT22;5202;49.138;10.090;2023-12-20T12:38:06;4.30;99.90
10314;DHT22;5202;49.138;10.090;2023-12-20T12:40:36;4.30;99.90
10314;DHT22;5202;49.138;10.090;2023-12-20T12:43:05;4.30;99.90
10314;DHT22;5202;49.138;10.090;2023-12-20T12:45:34;4.30;99.90
10314;DHT22;5202;49.138;10.090;2023-12-20T12:48:04;4.40;99.90
10314;DHT22;5202;49.138;10.090;2023-12-20T12:50:33;4.30;99.90
10314;DHT22;5202;49.138;10.090;2023-12-20T12:53:04;4.30;99.90
10314;DHT22;5202;49.138;10.090;2023-12-20T12:55:33;4.30;99.90
10314;DHT22;5202;49.138;10.090;2023-12-20T12:58:03;4.30;99.90
10314;DHT22;5202;49.138;10.090;2023-12-20T13:00:31;4.20;99.90
10314;DHT22;5202;49.138;10.090;2023-12-20T13:03:00;4.20;99.90
10314;DHT22;5202;49.138;10.090;2023-12-20T13:05:29;4.20;99.90
10314;DHT22;5202;49.138;10.090;2023-12-20T13:08:09;4.20;99.90
10314;DHT22;5202;49.138;10.090;2023-12-20T13:10:39;4.20;99.90
10314;DHT22;5202;49.138;10.090;2023-12-20T13:13:08;4.20;99.90
10314;DHT22;5202;49.138;10.090;2023-12-20T13:15:37;4.20;99.90
10314;DHT22;5202;49.138;10.090;2023-12-20T13:18:06;4.20;99.90
10314;DHT22;5202;49.138;10.090;2023-12-20T13:20:35;4.30;99.90
10314;DHT22;5202;49.138;10.090;2023-12-20T13:23:06;4.30;99.90
10314;DHT22;5202;49.138;10.090;2023-12-20T13:25:35;4.30;99.90
10314;DHT22;5202;49.138;10.090;2023-12-20T13:28:05;4.30;99.90
10314;DHT22;5202;49.138;10.090;2023-12-20T13:30:33;4.30;99.90
10314;DHT22;5202;49.138;10.090;2023-12-20T13:33:03;4.30;99.90
10314;DHT22;5202;49.138;10.090;2023-12-20T13:35:32;4.30;99.90
10314;DHT22;5202;49.138;10.090;2023-12-20T13:38:02;4.30;99.90
10314;DHT22;5202;49.138;10.090;2023-12-20T13:40:33;4.30;99.90
10314;DHT22;5202;49.138;10.090;2023-12-20T13:43:03;4.30;99.90
10314;DHT22;5202;49.138;10.090;2023-12-20T13:45:31;4.30;99.90
10314;DHT22;5202;49.138;10.090;2023-12-20T13:48:00;4.30;99.90
10314;DHT22;5202;49.138;10.090;2023-12-20T13:50:28;4.30;99.90
10314;DHT22;5202;49.138;10.090;2023-12-20T13:52:56;4.30;99.90
10314;DHT22;5202;49.138;10.090;2023-12-20T13:55:25;4.20;99.90
10314;DHT22;5202;49.138;10.090;2023-12-20T13:57:54;4.20;99.90
10314;DHT22;5202;49.138;10.090;2023-12-20T14:00:24;4.20;99.90
10314;DHT22;5202;49.138;10.090;2023-12-20T14:02:53;4.20;99.90
10314;DHT22;5202;49.138;10.090;2023-12-20T14:05:22;4.20;99.90
10314;DHT22;5202;49.138;10.090;2023-12-20T14:07:55;4.20;99.90
10314;DHT22;5202;49.138;10.090;2023-12-20T14:10:25;4.30;99.90
10314;DHT22;5202;49.138;10.090;2023-12-20T14:12:55;4.20;99.90
10314;DHT22;5202;49.138;10.090;2023-12-20T14:15:25;4.20;99.90
10314;DHT22;5202;49.138;10.090;2023-12-20T14:17:53;4.20;99.90
10314;DHT22;5202;49.138;10.090;2023-12-20T14:20:22;4.10;99.90
10314;DHT22;5202;49.138;10.090;2023-12-20T14:22:51;4.00;99.90
10314;DHT22;5202;49.138;10.090;2023-12-20T14:25:21;4.00;99.90
10314;DHT22;5202;49.138;10.090;2023-12-20T14:27:50;3.90;99.90
10314;DHT22;5202;49.138;10.090;2023-12-20T14:30:18;3.90;99.90
10314;DHT22;5202;49.138;10.090;2023-12-20T14:32:49;3.80;99.90
10314;DHT22;5202;49.138;10.090;2023-12-20T14:35:17;3.80;99.90
10314;DHT22;5202;49.138;10.090;2023-12-20T14:37:47;3.80;99.90
10314;DHT22;5202;49.138;10.090;2023-12-20T14:40:17;3.80;99.90
10314;DHT22;5202;49.138;10.090;2023-12-20T14:42:46;3.80;99.90
10314;DHT22;5202;49.138;10.090;2023-12-20T14:45:15;3.80;99.90
10314;DHT22;5202;49.138;10.090;2023-12-20T14:47:43;3.80;99.90
10314;DHT22;5202;49.138;10.090;2023-12-20T14:50:14;3.80;99.90
10314;DHT22;5202;49.138;10.090;2023-12-20T14:52:46;3.70;99.90
10314;DHT22;5202;49.138;10.090;2023-12-20T14:55:15;3.80;99.90
10314;DHT22;5202;49.138;10.090;2023-12-20T14:57:46;3.80;99.90
10314;DHT22;5202;49.138;10.090;2023-12-20T15:00:16;3.70;99.90
10314;DHT22;5202;49.138;10.090;2023-12-20T15:02:46;3.70;99.90
10314;DHT22;5202;49.138;10.090;2023-12-20T15:05:16;3.70;99.90
10314;DHT22;5202;49.138;10.090;2023-12-20T15:07:51;3.70;99.90
10314;DHT22;5202;49.138;10.090;2023-12-20T15:10:19;3.70;99.90
10314;DHT22;5202;49.138;10.090;2023-12-20T15:12:48;3.70;99.90
10314;DHT22;5202;49.138;10.090;2023-12-20T15:15:16;3.60;99.90
10314;DHT22;5202;49.138;10.090;2023-12-20T15:17:45;3.60;99.90
10314;DHT22;5202;49.138;10.090;2023-12-20T15:20:16;3.60;99.90
10314;DHT22;5202;49.138;10.090;2023-12-20T15:22:45;3.60;99.90
10314;DHT22;5202;49.138;10.090;2023-12-20T15:25:13;3.60;99.90
10314;DHT22;5202;49.138;10.090;2023-12-20T15:27:49;3.50;99.90
10314;DHT22;5202;49.138;10.090;2023-12-20T15:30:20;3.50;99.90
10314;DHT22;5202;49.138;10.090;2023-12-20T15:32:48;3.40;99.90
10314;DHT22;5202;49.138;10.090;2023-12-20T15:35:18;3.40;99.90
10314;DHT22;5202;49.138;10.090;2023-12-20T15:37:47;3.40;99.90
10314;DHT22;5202;49.138;10.090;2023-12-20T15:40:16;3.30;99.90
10314;DHT22;5202;49.138;10.090;2023-12-20T15:42:45;3.30;99.90
10314;DHT22;5202;49.138;10.090;2023-12-20T15:45:14;3.30;99.90
10314;DHT22;5202;49.138;10.090;2023-12-20T15:47:42;3.30;99.90
10314;DHT22;5202;49.138;10.090;2023-12-20T15:50:12;3.30;99.90
10314;DHT22;5202;49.138;10.090;2023-12-20T15:52:42;3.30;99.90
10314;DHT22;5202;49.138;10.090;2023-12-20T15:55:11;3.30;99.90
10314;DHT22;5202;49.138;10.090;2023-12-20T15:57:41;3.30;99.90
10314;DHT22;5202;49.138;10.090;2023-12-20T16:00:20;3.30;99.90
10314;DHT22;5202;49.138;10.090;2023-12-20T16:02:49;3.30;99.90